createdAt,value
2018-08-30T00:02:00.924Z,66.90
2018-08-30T00:04:29.461Z,66.90
2018-08-30T00:06:57.953Z,66.90
2018-08-30T00:09:26.513Z,67.70
2018-08-30T00:11:54.960Z,67.90
2018-08-30T00:14:23.523Z,67.60
2018-08-30T00:16:52.009Z,67.40
2018-08-30T00:19:20.445Z,67.30
2018-08-30T00:21:48.920Z,70.40
2018-08-30T00:24:17.544Z,68.30
2018-08-30T00:26:46.033Z,70.60
2018-08-30T00:29:14.489Z,73.50
2018-08-30T00:31:43.029Z,73.50
2018-08-30T00:34:11.800Z,74.80
2018-08-30T00:36:40.261Z,77.10
2018-08-30T00:39:09.769Z,76.80
2018-08-30T00:41:38.253Z,78.30
2018-08-30T00:44:06.808Z,78.10
2018-08-30T00:46:35.316Z,79.00
2018-08-30T00:49:03.756Z,79.40
2018-08-30T00:51:32.195Z,78.80
2018-08-30T00:54:00.672Z,79.90
2018-08-30T00:56:29.553Z,80.90
2018-08-30T00:58:58.253Z,80.20
2018-08-30T01:01:26.682Z,81.60
2018-08-30T01:03:55.132Z,81.60
2018-08-30T01:06:23.576Z,80.40
2018-08-30T01:08:52.030Z,79.80
2018-08-30T01:11:20.464Z,80.70
2018-08-30T01:13:48.916Z,81.50
2018-08-30T01:16:17.572Z,79.70
2018-08-30T01:18:46.090Z,78.20
2018-08-30T01:22:38.977Z,78.20
2018-08-30T01:25:07.409Z,78.90
2018-08-30T01:27:35.908Z,76.20
2018-08-30T01:30:04.480Z,75.50
2018-08-30T01:32:33.225Z,73.40
2018-08-30T01:35:01.664Z,74.00
2018-08-30T01:37:30.301Z,73.30
2018-08-30T01:39:58.776Z,74.70
2018-08-30T01:42:27.248Z,73.00
2018-08-30T01:44:55.666Z,71.40
2018-08-30T01:47:24.329Z,72.40
2018-08-30T01:49:52.741Z,73.80
2018-08-30T01:52:21.232Z,72.60
2018-08-30T01:54:49.715Z,72.90
2018-08-30T01:57:18.116Z,73.20
2018-08-30T01:59:46.663Z,74.90
2018-08-30T02:02:15.060Z,74.90
2018-08-30T02:04:43.615Z,75.40
2018-08-30T02:07:12.345Z,76.80
2018-08-30T02:09:41.032Z,76.20
2018-08-30T02:12:10.434Z,75.00
2018-08-30T02:14:38.853Z,73.30
2018-08-30T02:17:07.276Z,73.10
2018-08-30T02:19:35.754Z,71.80
2018-08-30T02:22:04.245Z,71.40
2018-08-30T02:24:33.439Z,72.90
2018-08-30T02:27:01.915Z,72.20
2018-08-30T02:29:30.382Z,71.20
2018-08-30T02:31:58.812Z,71.50
2018-08-30T02:34:27.283Z,72.80
2018-08-30T02:36:55.721Z,72.90
2018-08-30T02:39:24.163Z,72.20
2018-08-30T02:41:52.628Z,72.40
2018-08-30T02:44:21.095Z,73.10
2018-08-30T02:46:49.564Z,70.90
2018-08-30T02:49:18.077Z,72.70
2018-08-30T02:51:46.529Z,70.60
2018-08-30T02:54:15.037Z,70.60
2018-08-30T02:56:43.508Z,70.80
2018-08-30T02:59:12.036Z,69.30
2018-08-30T03:01:40.518Z,69.90
2018-08-30T03:04:08.961Z,70.50
2018-08-30T03:06:37.452Z,72.00
2018-08-30T03:09:07.748Z,71.10
2018-08-30T03:11:36.192Z,70.10
2018-08-30T03:14:04.603Z,69.10
2018-08-30T03:16:33.248Z,68.20
2018-08-30T03:19:01.695Z,68.40
2018-08-30T03:21:30.570Z,68.30
2018-08-30T03:23:58.983Z,69.10
2018-08-30T03:26:27.434Z,70.00
2018-08-30T03:28:55.960Z,68.20
2018-08-30T03:31:24.373Z,69.40
2018-08-30T03:33:52.832Z,68.30
2018-08-30T03:36:21.329Z,68.10
2018-08-30T03:38:49.814Z,67.90
2018-08-30T03:41:18.195Z,68.00
2018-08-30T03:43:46.640Z,67.20
2018-08-30T03:46:15.104Z,67.30
2018-08-30T03:48:43.531Z,68.50
2018-08-30T03:51:12.189Z,68.20
2018-08-30T03:53:40.607Z,67.40
2018-08-30T03:56:09.044Z,68.60
2018-08-30T03:58:37.535Z,67.10
2018-08-30T04:01:06.112Z,66.40
2018-08-30T04:03:34.593Z,67.80
2018-08-30T04:06:03.057Z,68.10
2018-08-30T04:08:31.544Z,67.70
2018-08-30T04:10:59.963Z,67.70
2018-08-30T04:13:28.476Z,66.90
2018-08-30T04:15:56.840Z,67.10
2018-08-30T04:18:25.484Z,66.40
2018-08-30T04:20:53.880Z,67.30
2018-08-30T04:23:22.336Z,66.10
2018-08-30T04:25:50.818Z,65.00
2018-08-30T04:28:19.252Z,64.90
2018-08-30T04:30:47.804Z,65.70
2018-08-30T04:33:16.244Z,65.80
2018-08-30T04:35:44.727Z,66.10
2018-08-30T04:38:13.268Z,65.50
2018-08-30T04:40:41.680Z,66.90
2018-08-30T04:43:10.109Z,66.20
2018-08-30T04:45:38.561Z,66.50
2018-08-30T04:48:07.264Z,66.60
2018-08-30T04:50:35.978Z,66.10
2018-08-30T04:53:04.380Z,66.00
2018-08-30T04:55:32.824Z,66.30
2018-08-30T04:58:01.368Z,67.30
2018-08-30T05:00:29.860Z,66.70
2018-08-30T05:02:58.318Z,66.30
2018-08-30T05:05:27.038Z,65.30
2018-08-30T05:07:55.549Z,66.20
2018-08-30T05:10:24.079Z,65.10
2018-08-30T05:12:52.619Z,65.70
2018-08-30T05:15:21.258Z,65.50
2018-08-30T05:17:49.677Z,65.60
2018-08-30T05:20:18.115Z,65.40
2018-08-30T05:22:46.560Z,65.20
2018-08-30T05:25:15.000Z,64.60
2018-08-30T05:27:43.454Z,64.60
2018-08-30T05:30:11.881Z,64.80
2018-08-30T05:32:40.316Z,65.80
2018-08-30T05:35:08.933Z,65.50
2018-08-30T05:37:37.359Z,65.90
2018-08-30T05:40:05.856Z,65.70
2018-08-30T05:42:34.336Z,65.00
2018-08-30T05:45:02.825Z,65.50
2018-08-30T05:47:31.385Z,64.50
2018-08-30T05:49:59.919Z,64.70
2018-08-30T05:52:28.360Z,64.10
2018-08-30T05:54:56.840Z,64.40
2018-08-30T05:57:25.344Z,65.30
2018-08-30T05:59:53.855Z,64.20
2018-08-30T06:02:22.385Z,63.50
2018-08-30T06:04:51.153Z,63.20
2018-08-30T06:07:19.795Z,62.90
2018-08-30T06:09:48.165Z,62.90
2018-08-30T06:12:17.109Z,62.60
2018-08-30T06:14:45.592Z,62.00
2018-08-30T06:17:14.092Z,62.00
2018-08-30T06:19:42.535Z,62.00
2018-08-30T06:22:11.016Z,61.20
2018-08-30T06:24:39.936Z,57.80
2018-08-30T06:27:08.396Z,60.60
2018-08-30T06:29:36.949Z,60.10
2018-08-30T06:32:05.440Z,57.90
2018-08-30T06:34:33.970Z,59.70
2018-08-30T06:37:02.537Z,59.10
2018-08-30T06:39:31.025Z,59.20
2018-08-30T06:41:59.575Z,59.80
2018-08-30T06:44:28.008Z,59.40
2018-08-30T06:46:56.456Z,59.30
2018-08-30T06:49:24.873Z,58.60
2018-08-30T06:51:53.821Z,55.40
2018-08-30T06:54:22.234Z,55.90
2018-08-30T06:56:50.788Z,55.10
2018-08-30T06:59:19.218Z,55.20
2018-08-30T07:01:47.703Z,56.20
2018-08-30T07:04:16.353Z,55.60
2018-08-30T07:06:44.780Z,55.40
2018-08-30T07:09:13.230Z,55.20
2018-08-30T07:11:41.684Z,55.60
2018-08-30T07:14:10.208Z,57.80
2018-08-30T07:16:38.636Z,59.40
2018-08-30T07:19:07.133Z,59.90
2018-08-30T07:21:35.566Z,61.10
2018-08-30T07:24:04.037Z,62.00
2018-08-30T07:26:32.469Z,62.90
2018-08-30T07:29:00.880Z,62.80
2018-08-30T07:31:29.387Z,63.20
2018-08-30T07:33:57.880Z,63.30
2018-08-30T07:36:26.474Z,64.40
2018-08-30T07:38:54.980Z,63.50
2018-08-30T07:41:24.044Z,63.70
2018-08-30T07:43:52.500Z,62.50
2018-08-30T07:46:20.968Z,62.60
2018-08-30T07:48:49.416Z,61.40
2018-08-30T07:51:17.850Z,62.10
2018-08-30T07:53:46.302Z,62.60
2018-08-30T07:56:14.757Z,61.40
2018-08-30T07:58:43.157Z,62.20
2018-08-30T08:01:11.756Z,60.00
2018-08-30T08:03:40.183Z,60.70
2018-08-30T08:06:08.756Z,60.70
2018-08-30T08:08:37.275Z,60.60
2018-08-30T08:11:05.729Z,60.50
2018-08-30T08:13:34.194Z,59.10
2018-08-30T08:16:02.683Z,54.90
2018-08-30T08:18:31.276Z,52.60
2018-08-30T08:20:59.747Z,51.80
2018-08-30T08:23:28.816Z,51.30
2018-08-30T08:25:57.270Z,52.40
2018-08-30T08:28:25.731Z,49.60
2018-08-30T08:30:55.376Z,50.20
2018-08-30T08:33:24.035Z,52.60
2018-08-30T08:35:52.536Z,49.70
2018-08-30T08:38:21.037Z,51.60
2018-08-30T08:40:49.484Z,49.20
2018-08-30T08:43:18.017Z,49.50
2018-08-30T08:45:46.510Z,51.20
2018-08-30T08:48:15.128Z,50.50
2018-08-30T08:50:43.597Z,47.30
2018-08-30T08:53:12.061Z,48.60
2018-08-30T08:55:41.117Z,49.50
2018-08-30T08:58:09.645Z,48.40
2018-08-30T09:00:38.128Z,48.70
2018-08-30T09:03:06.741Z,49.50
2018-08-30T09:05:35.263Z,51.70
2018-08-30T09:08:03.708Z,47.80
2018-08-30T09:10:32.185Z,47.50
2018-08-30T09:13:00.762Z,48.70
2018-08-30T09:15:29.224Z,47.70
2018-08-30T09:17:57.688Z,47.90
2018-08-30T09:20:26.181Z,48.20
2018-08-30T09:22:54.917Z,46.60
2018-08-30T09:25:23.382Z,45.60
2018-08-30T09:27:51.926Z,46.30
2018-08-30T09:30:20.379Z,46.40
2018-08-30T09:32:48.852Z,45.70
2018-08-30T09:35:17.394Z,42.60
2018-08-30T09:37:45.896Z,43.90
2018-08-30T09:40:14.801Z,46.70
2018-08-30T09:42:43.263Z,45.30
2018-08-30T09:45:11.830Z,43.00
2018-08-30T09:47:40.296Z,44.70
2018-08-30T09:50:09.472Z,47.80
2018-08-30T09:52:37.948Z,44.70
2018-08-30T09:55:07.497Z,45.10
2018-08-30T09:57:36.022Z,44.30
2018-08-30T10:00:04.648Z,43.00
2018-08-30T10:02:40.123Z,43.00
2018-08-30T10:05:08.607Z,42.60
2018-08-30T10:07:37.958Z,43.70
2018-08-30T10:10:06.682Z,44.60
2018-08-30T10:12:35.160Z,43.00
2018-08-30T10:15:03.661Z,42.50
2018-08-30T10:17:32.129Z,43.40
2018-08-30T10:20:00.853Z,43.30
2018-08-30T10:22:29.342Z,43.70
2018-08-30T10:24:57.896Z,44.80
2018-08-30T10:27:26.334Z,43.50
2018-08-30T10:29:54.888Z,42.80
2018-08-30T10:32:23.415Z,42.40
2018-08-30T10:34:52.160Z,41.90
2018-08-30T10:37:20.649Z,42.30
2018-08-30T10:39:49.151Z,43.00
2018-08-30T10:42:17.604Z,44.70
2018-08-30T10:44:46.080Z,44.20
2018-08-30T10:47:14.532Z,44.50
2018-08-30T10:49:43.230Z,42.70
2018-08-30T10:52:11.927Z,42.60
2018-08-30T10:54:40.431Z,40.80
2018-08-30T10:57:08.925Z,40.40
2018-08-30T10:59:37.400Z,40.00
2018-08-30T11:02:05.952Z,41.00
2018-08-30T11:04:34.743Z,41.90
2018-08-30T11:07:03.332Z,39.90
2018-08-30T11:09:31.778Z,39.20
2018-08-30T11:12:00.313Z,38.70
2018-08-30T11:14:28.892Z,39.30
2018-08-30T11:16:57.436Z,40.00
2018-08-30T11:19:25.956Z,39.40
2018-08-30T11:21:54.406Z,40.10
2018-08-30T11:24:22.988Z,40.70
2018-08-30T11:26:51.444Z,41.00
2018-08-30T11:29:20.434Z,40.90
2018-08-30T11:31:48.923Z,39.70
2018-08-30T11:34:17.572Z,39.60
2018-08-30T11:36:46.085Z,39.90
2018-08-30T11:39:14.580Z,40.60
2018-08-30T11:41:43.288Z,39.50
2018-08-30T11:44:12.073Z,39.60
2018-08-30T11:46:40.504Z,39.70
2018-08-30T11:49:08.976Z,39.00
2018-08-30T11:51:37.392Z,38.50
2018-08-30T11:54:05.916Z,38.20
2018-08-30T11:56:34.505Z,38.40
2018-08-30T11:59:02.966Z,37.60
2018-08-30T12:01:31.464Z,38.40
2018-08-30T12:04:00.184Z,37.50
2018-08-30T12:06:28.754Z,37.50
2018-08-30T12:08:57.379Z,39.30
2018-08-30T12:11:25.809Z,39.90
2018-08-30T12:13:54.341Z,38.60
2018-08-30T12:16:22.784Z,40.30
2018-08-30T12:18:51.254Z,41.30
2018-08-30T12:21:19.693Z,40.50
2018-08-30T12:23:48.307Z,39.20
2018-08-30T12:26:16.916Z,38.60
2018-08-30T12:28:45.566Z,38.40
2018-08-30T12:31:14.029Z,37.50
2018-08-30T12:33:42.579Z,39.30
2018-08-30T12:36:11.099Z,39.90
2018-08-30T12:38:39.608Z,38.60
2018-08-30T12:41:08.161Z,38.10
2018-08-30T12:43:36.982Z,37.80
2018-08-30T12:46:06.182Z,38.10
2018-08-30T12:48:34.762Z,37.30
2018-08-30T12:51:03.324Z,37.90
2018-08-30T12:53:32.035Z,37.90
2018-08-30T12:56:00.661Z,39.60
2018-08-30T12:58:29.265Z,39.40
2018-08-30T13:00:57.562Z,39.30
2018-08-30T13:03:26.005Z,38.80
2018-08-30T13:05:54.638Z,39.10
2018-08-30T13:08:23.143Z,39.10
2018-08-30T13:10:51.829Z,40.60
2018-08-30T13:13:20.324Z,39.30
2018-08-30T13:15:49.084Z,39.20
2018-08-30T13:18:17.521Z,38.80
2018-08-30T13:20:46.178Z,37.20
2018-08-30T13:23:14.586Z,36.40
2018-08-30T13:25:43.098Z,37.00
2018-08-30T13:28:11.728Z,37.80
2018-08-30T13:30:39.921Z,38.40
2018-08-30T13:33:08.796Z,37.70
2018-08-30T13:35:37.037Z,38.10
2018-08-30T13:38:06.136Z,38.10
2018-08-30T13:40:34.665Z,38.40
2018-08-30T13:43:03.051Z,37.10
2018-08-30T13:45:31.510Z,36.50
2018-08-30T13:47:59.965Z,35.40
2018-08-30T13:50:28.437Z,35.10
2018-08-30T13:52:56.758Z,35.20
2018-08-30T13:55:25.270Z,35.30
2018-08-30T13:57:53.966Z,36.20
2018-08-30T14:00:23.095Z,36.70
2018-08-30T14:02:51.297Z,36.70
2018-08-30T14:05:19.880Z,36.40
2018-08-30T14:07:48.503Z,37.20
2018-08-30T14:10:17.108Z,37.30
2018-08-30T14:12:45.644Z,36.40
2018-08-30T14:15:14.307Z,37.20
2018-08-30T14:17:42.289Z,39.70
2018-08-30T14:20:10.741Z,40.70
2018-08-30T14:22:39.303Z,40.80
2018-08-30T14:25:07.848Z,38.20
2018-08-30T14:27:37.096Z,39.90
2018-08-30T14:30:05.661Z,41.50
2018-08-30T14:32:34.074Z,37.90
2018-08-30T14:35:02.544Z,39.50
2018-08-30T14:37:31.237Z,39.50
2018-08-30T14:40:00.070Z,39.50
2018-08-30T14:42:28.523Z,39.90
2018-08-30T14:44:57.194Z,39.80
2018-08-30T14:47:25.847Z,40.10
2018-08-30T14:49:54.108Z,40.20
2018-08-30T14:52:22.628Z,37.60
2018-08-30T14:54:51.144Z,39.90
2018-08-30T14:57:19.684Z,36.70
2018-08-30T14:59:48.080Z,38.60
2018-08-30T15:02:17.553Z,37.90
2018-08-30T15:04:46.088Z,38.40
2018-08-30T15:07:14.571Z,37.40
2018-08-30T15:09:42.976Z,37.60
2018-08-30T15:12:11.466Z,39.10
2018-08-30T15:14:39.924Z,37.80
2018-08-30T15:17:09.113Z,38.60
2018-08-30T15:19:37.576Z,37.80
2018-08-30T15:22:06.049Z,38.60
2018-08-30T15:24:34.532Z,39.00
2018-08-30T15:27:03.035Z,37.90
2018-08-30T15:29:31.493Z,39.00
2018-08-30T15:31:59.957Z,37.30
2018-08-30T15:34:28.505Z,37.50
2018-08-30T15:36:56.981Z,36.30
2018-08-30T15:39:25.507Z,37.30
2018-08-30T15:41:53.995Z,38.10
2018-08-30T15:44:22.545Z,36.80
2018-08-30T15:46:50.995Z,38.30
2018-08-30T15:49:19.535Z,38.10
2018-08-30T15:51:47.999Z,38.30
2018-08-30T15:54:16.473Z,37.20
2018-08-30T15:56:45.011Z,37.40
2018-08-30T15:59:13.539Z,37.20
2018-08-30T16:01:42.089Z,36.80
2018-08-30T16:04:11.541Z,36.90
2018-08-30T16:06:41.164Z,37.70
2018-08-30T16:09:11.256Z,37.70
2018-08-30T16:11:39.767Z,37.40
2018-08-30T16:14:08.206Z,36.40
2018-08-30T16:16:36.700Z,36.80
2018-08-30T16:19:05.143Z,36.50
2018-08-30T16:21:33.752Z,37.30
2018-08-30T16:24:02.204Z,36.80
2018-08-30T16:26:30.695Z,37.10
2018-08-30T16:28:59.910Z,36.50
2018-08-30T16:31:28.470Z,36.40
2018-08-30T16:33:57.014Z,36.40
2018-08-30T16:36:25.512Z,35.90
2018-08-30T16:38:54.046Z,36.20
2018-08-30T16:41:22.674Z,35.70
2018-08-30T16:43:51.139Z,36.60
2018-08-30T16:46:19.578Z,35.70
2018-08-30T16:48:48.199Z,35.60
2018-08-30T16:51:16.698Z,36.50
2018-08-30T16:53:45.212Z,36.60
2018-08-30T16:56:13.680Z,36.70
2018-08-30T16:58:42.074Z,37.30
2018-08-30T17:01:10.606Z,37.40
2018-08-30T17:03:39.285Z,37.50
2018-08-30T17:06:07.702Z,36.40
2018-08-30T17:08:36.200Z,38.20
2018-08-30T17:11:04.667Z,37.20
2018-08-30T17:13:33.160Z,37.50
2018-08-30T17:16:01.605Z,37.80
2018-08-30T17:18:30.099Z,37.90
2018-08-30T17:20:58.528Z,37.50
2018-08-30T17:23:27.012Z,37.70
2018-08-30T17:25:56.079Z,37.40
2018-08-30T17:28:24.576Z,38.80
2018-08-30T17:30:53.189Z,38.30
2018-08-30T17:33:21.677Z,38.30
2018-08-30T17:35:50.310Z,38.50
2018-08-30T17:38:18.868Z,38.90
2018-08-30T17:40:47.416Z,38.40
2018-08-30T17:43:15.941Z,38.80
2018-08-30T17:45:44.416Z,38.50
2018-08-30T17:48:12.868Z,39.20
2018-08-30T17:50:41.350Z,39.80
2018-08-30T17:53:09.825Z,40.10
2018-08-30T17:55:38.452Z,40.50
2018-08-30T17:58:07.181Z,40.10
2018-08-30T18:00:35.787Z,40.10
2018-08-30T18:03:04.244Z,39.90
2018-08-30T18:05:32.793Z,39.80
2018-08-30T18:08:01.281Z,40.80
2018-08-30T18:10:30.420Z,40.50
2018-08-30T18:12:58.941Z,41.30
2018-08-30T18:15:27.520Z,41.50
2018-08-30T18:17:56.070Z,40.90
2018-08-30T18:20:24.658Z,41.90
2018-08-30T18:22:54.185Z,42.40
2018-08-30T18:25:22.821Z,41.90
2018-08-30T18:27:51.291Z,40.40
2018-08-30T18:30:20.180Z,40.30
2018-08-30T18:32:48.642Z,44.50
2018-08-30T18:35:17.075Z,42.60
2018-08-30T18:37:45.618Z,43.30
2018-08-30T18:40:14.185Z,45.90
2018-08-30T18:42:42.665Z,46.00
2018-08-30T18:45:11.181Z,47.90
2018-08-30T18:47:39.649Z,47.60
2018-08-30T18:50:08.213Z,47.60
2018-08-30T18:52:36.771Z,46.70
2018-08-30T18:55:05.540Z,50.40
2018-08-30T18:57:33.997Z,49.90
2018-08-30T19:00:02.474Z,49.50
2018-08-30T19:02:31.026Z,50.80
2018-08-30T19:05:00.307Z,51.40
2018-08-30T19:07:29.430Z,50.30
2018-08-30T19:09:57.882Z,51.30
2018-08-30T19:12:27.751Z,51.10
2018-08-30T19:14:56.243Z,52.40
2018-08-30T19:17:30.117Z,51.60
2018-08-30T19:19:58.620Z,51.90
2018-08-30T19:22:27.694Z,52.40
2018-08-30T19:25:02.039Z,52.00
2018-08-30T19:27:30.683Z,51.60
2018-08-30T19:30:04.369Z,55.00
2018-08-30T19:32:33.312Z,58.80
2018-08-30T19:35:07.554Z,60.00
2018-08-30T19:37:36.072Z,57.70
2018-08-30T19:40:04.636Z,54.60
2018-08-30T19:42:33.446Z,56.50
2018-08-30T19:45:02.201Z,56.20
2018-08-30T19:47:30.709Z,55.40
2018-08-30T19:49:59.350Z,60.00
2018-08-30T19:52:27.871Z,58.90
2018-08-30T19:54:56.461Z,58.50
2018-08-30T19:57:24.828Z,58.50
2018-08-30T19:59:54.300Z,60.40
2018-08-30T20:02:22.832Z,59.90
2018-08-30T20:04:51.284Z,60.20
2018-08-30T20:07:19.937Z,60.00
2018-08-30T20:09:48.381Z,60.40
2018-08-30T20:12:16.877Z,59.30
2018-08-30T20:14:45.897Z,54.30
2018-08-30T20:17:14.392Z,54.90
2018-08-30T20:19:42.996Z,55.70
2018-08-30T20:22:13.068Z,56.90
2018-08-30T20:24:42.152Z,57.10
2018-08-30T20:27:10.756Z,60.60
2018-08-30T20:29:39.298Z,60.90
2018-08-30T20:32:07.792Z,60.20
2018-08-30T20:34:36.279Z,60.00
2018-08-30T20:37:04.842Z,60.50
2018-08-30T20:39:33.360Z,61.30
2018-08-30T20:42:02.742Z,61.10
2018-08-30T20:44:31.178Z,61.80
2018-08-30T20:46:59.657Z,61.50
2018-08-30T20:49:28.305Z,62.50
2018-08-30T20:51:56.759Z,60.30
2018-08-30T20:54:25.228Z,60.00
2018-08-30T20:56:54.380Z,59.30
2018-08-30T20:59:22.958Z,61.40
2018-08-30T21:01:51.499Z,61.60
2018-08-30T21:04:19.964Z,62.20
2018-08-30T21:06:48.490Z,62.30
2018-08-30T21:09:17.197Z,62.60
2018-08-30T21:11:45.642Z,62.40
2018-08-30T21:14:14.081Z,62.60
2018-08-30T21:16:42.613Z,63.20
2018-08-30T21:19:11.118Z,62.60
2018-08-30T21:21:39.601Z,63.50
2018-08-30T21:24:08.093Z,63.90
2018-08-30T21:26:36.733Z,64.10
2018-08-30T21:29:05.552Z,63.70
2018-08-30T21:31:34.224Z,65.10
2018-08-30T21:34:02.844Z,64.90
2018-08-30T21:36:31.309Z,63.80
2018-08-30T21:38:59.994Z,64.10
2018-08-30T21:41:28.782Z,64.20
2018-08-30T21:43:57.256Z,64.10
2018-08-30T21:46:25.863Z,64.20
2018-08-30T21:48:54.317Z,64.80
2018-08-30T21:51:22.864Z,65.20
2018-08-30T21:53:51.334Z,66.50
2018-08-30T21:56:19.886Z,66.20
2018-08-30T21:58:48.414Z,66.90
2018-08-30T22:01:17.048Z,67.00
2018-08-30T22:03:45.595Z,67.90
2018-08-30T22:06:14.217Z,67.00
2018-08-30T22:08:42.649Z,68.10
2018-08-30T22:11:11.144Z,67.80
2018-08-30T22:13:39.648Z,66.00
2018-08-30T22:16:08.176Z,67.20
2018-08-30T22:18:36.654Z,67.50
2018-08-30T22:21:05.298Z,68.40
2018-08-30T22:23:33.740Z,68.00
2018-08-30T22:26:02.276Z,68.20
2018-08-30T22:28:30.825Z,68.60
2018-08-30T22:30:59.264Z,67.50
2018-08-30T22:33:27.707Z,68.20
2018-08-30T22:35:56.148Z,67.80
2018-08-30T22:38:24.802Z,66.40
2018-08-30T22:40:53.360Z,67.40
2018-08-30T22:43:21.836Z,64.70
2018-08-30T22:45:50.435Z,63.60
2018-08-30T22:48:18.932Z,64.20
2018-08-30T22:50:47.405Z,65.20
2018-08-30T22:53:15.856Z,63.90
2018-08-30T22:55:44.315Z,63.60
2018-08-30T22:58:12.944Z,64.60
2018-08-30T23:00:41.393Z,64.40
2018-08-30T23:03:09.924Z,65.00
2018-08-30T23:05:38.476Z,65.00
2018-08-30T23:08:07.009Z,65.20
2018-08-30T23:10:35.500Z,66.10
2018-08-30T23:13:04.064Z,66.10
2018-08-30T23:15:32.520Z,66.50
2018-08-30T23:18:00.957Z,65.70
2018-08-30T23:20:29.454Z,65.90
2018-08-30T23:22:57.906Z,66.00
2018-08-30T23:25:26.369Z,65.20
2018-08-30T23:27:54.877Z,65.10
2018-08-30T23:30:23.468Z,64.00
2018-08-30T23:32:51.883Z,63.70
2018-08-30T23:35:20.309Z,63.80
2018-08-30T23:37:48.776Z,64.50
2018-08-30T23:40:17.868Z,65.60
2018-08-30T23:42:46.329Z,66.30
2018-08-30T23:45:15.332Z,66.30
2018-08-30T23:47:43.813Z,65.20
2018-08-30T23:50:12.246Z,64.50
2018-08-30T23:52:40.757Z,66.10
2018-08-30T23:55:09.247Z,66.40
2018-08-30T23:57:44.778Z,65.80
